createdAt,value
2018-06-05T00:00:23.467Z,23.50
2018-06-05T00:02:52.318Z,23.46
2018-06-05T00:05:21.123Z,23.42
2018-06-05T00:07:49.881Z,23.40
2018-06-05T00:10:18.370Z,23.35
2018-06-05T00:12:46.892Z,23.38
2018-06-05T00:15:15.691Z,23.25
2018-06-05T00:17:45.032Z,23.19
2018-06-05T00:20:13.735Z,23.10
2018-06-05T00:22:43.141Z,23.10
2018-06-05T00:25:11.761Z,23.08
2018-06-05T00:27:40.247Z,22.98
2018-06-05T00:30:09.285Z,22.85
2018-06-05T00:32:38.798Z,22.86
2018-06-05T00:35:07.983Z,22.92
2018-06-05T00:37:36.984Z,22.86
2018-06-05T00:40:05.513Z,22.84
2018-06-05T00:42:33.981Z,22.83
2018-06-05T00:45:02.513Z,22.84
2018-06-05T00:47:31.617Z,22.79
2018-06-05T00:50:00.162Z,22.79
2018-06-05T00:52:28.640Z,22.69
2018-06-05T00:54:57.240Z,22.66
2018-06-05T00:57:25.682Z,22.62
2018-06-05T00:59:54.346Z,22.58
2018-06-05T01:02:23.545Z,22.50
2018-06-05T01:04:52.156Z,22.52
2018-06-05T01:07:21.200Z,22.53
2018-06-05T01:09:49.737Z,22.50
2018-06-05T01:12:18.218Z,22.50
2018-06-05T01:14:47.310Z,22.47
2018-06-05T01:17:16.377Z,22.46
2018-06-05T01:19:44.954Z,22.41
2018-06-05T01:22:13.479Z,22.34
2018-06-05T01:24:42.028Z,22.31
2018-06-05T01:27:13.647Z,22.26
2018-06-05T01:29:42.625Z,22.22
2018-06-05T01:32:11.208Z,22.15
2018-06-05T01:34:39.757Z,22.02
2018-06-05T01:37:08.195Z,22.02
2018-06-05T01:39:37.403Z,21.85
2018-06-05T01:42:05.954Z,21.84
2018-06-05T01:44:34.718Z,21.86
2018-06-05T01:47:03.180Z,21.84
2018-06-05T01:49:36.970Z,21.76
2018-06-05T01:52:05.560Z,21.75
2018-06-05T01:54:34.983Z,21.71
2018-06-05T01:57:03.978Z,21.73
2018-06-05T01:59:32.546Z,21.69
2018-06-05T02:02:01.053Z,21.60
2018-06-05T02:04:29.896Z,21.56
2018-06-05T02:06:58.833Z,21.57
2018-06-05T02:09:27.760Z,21.61
2018-06-05T02:11:56.865Z,21.59
2018-06-05T02:14:25.467Z,21.58
2018-06-05T02:16:53.992Z,21.53
2018-06-05T02:19:22.528Z,21.53
2018-06-05T02:21:51.310Z,21.44
2018-06-05T02:24:19.871Z,21.29
2018-06-05T02:26:48.605Z,21.38
2018-06-05T02:29:17.158Z,21.42
2018-06-05T02:31:46.484Z,21.41
2018-06-05T02:34:15.034Z,21.33
2018-06-05T02:36:43.862Z,21.28
2018-06-05T02:39:12.883Z,21.32
2018-06-05T02:41:42.287Z,21.28
2018-06-05T02:44:11.233Z,21.18
2018-06-05T02:46:40.020Z,21.10
2018-06-05T02:49:09.004Z,21.17
2018-06-05T02:51:37.506Z,21.05
2018-06-05T02:54:06.107Z,21.06
2018-06-05T02:56:34.635Z,21.01
2018-06-05T02:59:07.406Z,20.96
2018-06-05T03:01:36.051Z,20.94
2018-06-05T03:04:04.929Z,20.99
2018-06-05T03:06:33.549Z,20.97
2018-06-05T03:09:02.192Z,20.93
2018-06-05T03:11:30.876Z,20.93
2018-06-05T03:13:59.472Z,20.53
2018-06-05T03:16:27.955Z,20.96
2018-06-05T03:18:56.436Z,20.95
2018-06-05T03:21:25.298Z,20.96
2018-06-05T03:23:53.848Z,20.89
2018-06-05T03:26:22.953Z,20.83
2018-06-05T03:28:51.913Z,20.87
2018-06-05T03:31:20.386Z,20.72
2018-06-05T03:33:48.998Z,20.60
2018-06-05T03:36:27.153Z,20.53
2018-06-05T03:38:56.551Z,20.53
2018-06-05T03:41:25.507Z,20.58
2018-06-05T03:43:56.082Z,20.55
2018-06-05T03:46:24.691Z,20.57
2018-06-05T03:48:54.148Z,20.59
2018-06-05T03:51:23.281Z,20.60
2018-06-05T03:53:51.918Z,20.64
2018-06-05T03:56:20.810Z,20.70
2018-06-05T03:58:49.732Z,20.76
2018-06-05T04:01:19.095Z,20.79
2018-06-05T04:03:47.972Z,20.75
2018-06-05T04:06:16.469Z,20.77
2018-06-05T04:08:46.022Z,20.67
2018-06-05T04:11:14.991Z,20.54
2018-06-05T04:13:43.968Z,20.49
2018-06-05T04:16:12.662Z,20.55
2018-06-05T04:18:41.911Z,20.63
2018-06-05T04:21:10.826Z,20.58
2018-06-05T04:23:39.501Z,20.47
2018-06-05T04:26:08.015Z,20.44
2018-06-05T04:28:36.910Z,20.39
2018-06-05T04:31:05.786Z,20.47
2018-06-05T04:33:34.695Z,20.51
2018-06-05T04:36:03.847Z,20.51
2018-06-05T04:38:32.294Z,20.44
2018-06-05T04:41:00.850Z,20.33
2018-06-05T04:43:30.133Z,20.33
2018-06-05T04:45:58.653Z,20.34
2018-06-05T04:48:27.398Z,20.33
2018-06-05T04:50:55.835Z,20.37
2018-06-05T04:53:24.388Z,20.29
2018-06-05T04:55:53.326Z,20.39
2018-06-05T04:58:21.841Z,20.34
2018-06-05T05:00:50.330Z,20.28
2018-06-05T05:03:18.874Z,20.25
2018-06-05T05:05:47.376Z,20.17
2018-06-05T05:08:16.969Z,20.16
2018-06-05T05:10:45.594Z,20.26
2018-06-05T05:13:14.176Z,20.26
2018-06-05T05:15:42.701Z,20.34
2018-06-05T05:18:12.489Z,20.50
2018-06-05T05:20:40.925Z,20.63
2018-06-05T05:23:09.581Z,20.37
2018-06-05T05:25:38.090Z,20.63
2018-06-05T05:28:06.627Z,20.82
2018-06-05T05:30:35.183Z,20.85
2018-06-05T05:33:03.796Z,20.96
2018-06-05T05:35:32.259Z,20.96
2018-06-05T05:38:00.741Z,21.15
2018-06-05T05:40:29.285Z,20.89
2018-06-05T05:42:57.766Z,21.02
2018-06-05T05:45:27.300Z,21.20
2018-06-05T05:47:56.998Z,21.11
2018-06-05T05:50:25.435Z,21.10
2018-06-05T05:52:54.758Z,21.28
2018-06-05T05:55:25.363Z,21.39
2018-06-05T05:57:53.999Z,21.28
2018-06-05T06:00:22.481Z,21.51
2018-06-05T06:02:51.042Z,21.55
2018-06-05T06:05:19.793Z,21.68
2018-06-05T06:07:48.313Z,21.72
2018-06-05T06:10:16.838Z,21.83
2018-06-05T06:12:45.295Z,21.95
2018-06-05T06:15:13.957Z,22.12
2018-06-05T06:17:42.775Z,22.08
2018-06-05T06:20:11.437Z,22.06
2018-06-05T06:22:39.960Z,22.05
2018-06-05T06:25:08.545Z,22.22
2018-06-05T06:27:38.083Z,22.20
2018-06-05T06:30:06.601Z,22.47
2018-06-05T06:32:35.206Z,22.61
2018-06-05T06:35:03.867Z,22.64
2018-06-05T06:37:32.440Z,22.84
2018-06-05T06:40:00.948Z,22.91
2018-06-05T06:42:29.799Z,22.87
2018-06-05T06:44:58.376Z,22.95
2018-06-05T06:47:27.038Z,23.04
2018-06-05T06:49:55.614Z,23.03
2018-06-05T06:52:24.205Z,22.97
2018-06-05T06:54:53.165Z,23.14
2018-06-05T06:57:21.680Z,23.24
2018-06-05T06:59:50.488Z,23.26
2018-06-05T07:02:19.125Z,23.43
2018-06-05T07:04:47.647Z,23.58
2018-06-05T07:07:17.096Z,23.65
2018-06-05T07:09:45.737Z,23.86
2018-06-05T07:12:14.305Z,24.00
2018-06-05T07:14:42.917Z,24.04
2018-06-05T07:17:11.436Z,24.18
2018-06-05T07:19:40.795Z,24.49
2018-06-05T07:22:09.315Z,24.47
2018-06-05T07:24:37.869Z,24.60
2018-06-05T07:27:06.406Z,24.79
2018-06-05T07:29:35.111Z,24.96
2018-06-05T07:32:03.691Z,25.10
2018-06-05T07:34:32.317Z,25.27
2018-06-05T07:37:01.201Z,25.38
2018-06-05T07:39:30.564Z,25.25
2018-06-05T07:41:59.086Z,25.20
2018-06-05T07:44:27.698Z,25.23
2018-06-05T07:46:56.167Z,25.30
2018-06-05T07:49:24.586Z,25.46
2018-06-05T07:51:53.211Z,25.64
2018-06-05T07:54:21.833Z,25.72
2018-06-05T07:56:50.765Z,25.67
2018-06-05T07:59:20.764Z,25.71
2018-06-05T08:01:50.624Z,25.54
2018-06-05T08:04:19.591Z,25.56
2018-06-05T08:06:48.150Z,25.69
2018-06-05T08:09:17.388Z,25.87
2018-06-05T08:11:45.976Z,25.98
2018-06-05T08:14:14.452Z,25.92
2018-06-05T08:16:42.940Z,26.05
2018-06-05T08:19:11.489Z,26.01
2018-06-05T08:21:40.727Z,26.14
2018-06-05T08:24:09.546Z,26.17
2018-06-05T08:26:57.030Z,26.25
2018-06-05T08:29:26.081Z,26.34
2018-06-05T08:31:54.661Z,26.41
2018-06-05T08:34:24.289Z,26.35
2018-06-05T08:36:52.952Z,26.37
2018-06-05T08:39:21.443Z,26.37
2018-06-05T08:41:50.021Z,26.55
2018-06-05T08:44:18.640Z,26.69
2018-06-05T08:46:48.537Z,26.83
2018-06-05T08:49:17.028Z,26.80
2018-06-05T08:51:45.654Z,26.69
2018-06-05T08:54:14.214Z,26.80
2018-06-05T08:56:43.035Z,26.84
2018-06-05T08:59:18.146Z,27.03
2018-06-05T09:01:46.937Z,27.20
2018-06-05T09:04:15.437Z,27.40
2018-06-05T09:06:44.030Z,27.40
2018-06-05T09:09:13.023Z,27.46
2018-06-05T09:11:42.553Z,27.46
2018-06-05T09:14:11.242Z,27.48
2018-06-05T09:16:39.761Z,27.44
2018-06-05T09:19:08.924Z,27.44
2018-06-05T09:21:37.498Z,27.53
2018-06-05T09:24:06.052Z,27.60
2018-06-05T09:26:34.536Z,27.69
2018-06-05T09:29:03.331Z,27.86
2018-06-05T09:31:32.287Z,27.95
2018-06-05T09:34:00.902Z,28.00
2018-06-05T09:36:29.565Z,27.99
2018-06-05T09:38:58.080Z,27.99
2018-06-05T09:41:26.897Z,28.18
2018-06-05T09:43:55.522Z,28.24
2018-06-05T09:46:24.122Z,28.36
2018-06-05T09:48:52.911Z,28.46
2018-06-05T09:51:22.269Z,28.48
2018-06-05T09:53:50.795Z,28.59
2018-06-05T09:56:20.228Z,28.67
2018-06-05T09:58:48.977Z,28.64
2018-06-05T10:01:17.514Z,28.64
2018-06-05T10:03:46.156Z,28.72
2018-06-05T10:06:14.820Z,28.70
2018-06-05T10:08:43.382Z,28.71
2018-06-05T10:11:11.944Z,28.76
2018-06-05T10:13:40.470Z,28.85
2018-06-05T10:16:09.052Z,29.01
2018-06-05T10:18:37.631Z,29.18
2018-06-05T10:21:06.264Z,29.25
2018-06-05T10:23:35.417Z,29.03
2018-06-05T10:26:04.433Z,28.90
2018-06-05T10:28:33.873Z,28.98
2018-06-05T10:31:02.722Z,29.03
2018-06-05T10:33:31.288Z,28.97
2018-06-05T10:35:59.818Z,29.11
2018-06-05T10:38:28.321Z,29.21
2018-06-05T10:40:57.476Z,29.37
2018-06-05T10:43:26.748Z,29.53
2018-06-05T10:45:55.247Z,29.56
2018-06-05T10:48:23.843Z,29.74
2018-06-05T10:50:52.349Z,29.73
2018-06-05T10:53:22.060Z,29.76
2018-06-05T10:55:50.652Z,29.58
2018-06-05T10:58:19.403Z,29.18
2018-06-05T11:00:48.911Z,29.50
2018-06-05T11:03:17.618Z,29.52
2018-06-05T11:05:47.068Z,29.43
2018-06-05T11:08:16.089Z,29.50
2018-06-05T11:10:44.523Z,29.47
2018-06-05T11:13:13.066Z,29.64
2018-06-05T11:15:41.564Z,29.74
2018-06-05T11:18:10.111Z,29.97
2018-06-05T11:20:38.675Z,29.85
2018-06-05T11:23:07.618Z,30.10
2018-06-05T11:25:36.094Z,30.04
2018-06-05T11:28:04.576Z,30.10
2018-06-05T11:30:33.105Z,30.23
2018-06-05T11:33:02.055Z,30.38
2018-06-05T11:35:30.575Z,30.57
2018-06-05T11:37:59.325Z,30.52
2018-06-05T11:40:27.898Z,30.75
2018-06-05T11:42:56.424Z,30.81
2018-06-05T11:45:25.564Z,30.76
2018-06-05T11:47:54.066Z,30.73
2018-06-05T11:50:22.623Z,30.64
2018-06-05T11:52:52.113Z,30.59
2018-06-05T11:55:20.637Z,30.95
2018-06-05T11:57:49.487Z,31.31
2018-06-05T12:00:18.098Z,31.29
2018-06-05T12:02:46.967Z,31.40
2018-06-05T12:05:15.688Z,31.37
2018-06-05T12:07:44.427Z,31.30
2018-06-05T12:10:13.045Z,31.45
2018-06-05T12:12:41.807Z,31.30
2018-06-05T12:15:10.357Z,31.28
2018-06-05T12:17:39.506Z,31.34
2018-06-05T12:20:11.889Z,31.62
2018-06-05T12:22:40.660Z,31.64
2018-06-05T12:25:09.170Z,31.68
2018-06-05T12:27:37.971Z,31.81
2018-06-05T12:30:06.936Z,31.82
2018-06-05T12:32:35.537Z,31.86
2018-06-05T12:35:04.304Z,31.85
2018-06-05T12:37:32.903Z,31.47
2018-06-05T12:40:01.693Z,31.63
2018-06-05T12:42:30.197Z,31.95
2018-06-05T12:44:59.268Z,32.20
2018-06-05T12:47:27.815Z,32.39
2018-06-05T12:49:56.794Z,33.18
2018-06-05T12:52:25.340Z,34.08
2018-06-05T12:54:53.784Z,34.74
2018-06-05T12:57:22.297Z,35.56
2018-06-05T12:59:51.268Z,36.52
2018-06-05T13:02:19.708Z,36.63
2018-06-05T13:04:48.331Z,36.66
2018-06-05T13:07:16.908Z,37.12
2018-06-05T13:09:46.409Z,37.64
2018-06-05T13:12:15.134Z,36.20
2018-06-05T13:14:43.675Z,34.68
2018-06-05T13:17:12.172Z,34.01
2018-06-05T13:19:41.834Z,33.72
2018-06-05T13:22:10.331Z,33.44
2018-06-05T13:24:38.880Z,32.22
2018-06-05T13:27:08.271Z,31.81
2018-06-05T13:29:37.647Z,31.30
2018-06-05T13:32:06.199Z,31.43
2018-06-05T13:34:35.165Z,31.62
2018-06-05T13:37:04.039Z,31.77
2018-06-05T13:39:32.564Z,31.28
2018-06-05T13:42:01.409Z,31.76
2018-06-05T13:44:29.870Z,31.77
2018-06-05T13:46:58.374Z,31.70
2018-06-05T13:49:27.216Z,31.90
2018-06-05T13:51:55.758Z,32.22
2018-06-05T13:54:24.254Z,32.35
2018-06-05T13:56:52.791Z,33.11
2018-06-05T13:59:21.299Z,33.65
2018-06-05T14:01:50.093Z,33.92
2018-06-05T14:04:18.705Z,34.29
2018-06-05T14:06:47.202Z,33.96
2018-06-05T14:09:15.738Z,33.98
2018-06-05T14:11:44.264Z,33.77
2018-06-05T14:14:13.400Z,33.91
2018-06-05T14:16:41.931Z,34.71
2018-06-05T14:19:10.513Z,34.14
2018-06-05T14:21:39.054Z,34.40
2018-06-05T14:24:07.649Z,34.32
2018-06-05T14:26:36.336Z,34.72
2018-06-05T14:29:04.882Z,35.12
2018-06-05T14:31:33.450Z,35.35
2018-06-05T14:34:01.953Z,34.48
2018-06-05T14:36:30.778Z,34.16
2018-06-05T14:38:59.523Z,33.92
2018-06-05T14:41:28.035Z,33.60
2018-06-05T14:43:56.722Z,33.51
2018-06-05T14:46:25.510Z,33.04
2018-06-05T14:48:54.249Z,32.84
2018-06-05T14:51:23.018Z,32.54
2018-06-05T14:53:52.388Z,32.18
2018-06-05T14:56:21.486Z,32.14
2018-06-05T14:58:49.938Z,32.08
2018-06-05T15:01:18.546Z,32.00
2018-06-05T15:03:47.041Z,32.14
2018-06-05T15:06:15.581Z,32.46
2018-06-05T15:08:44.098Z,32.42
2018-06-05T15:11:12.927Z,32.40
2018-06-05T15:13:41.685Z,32.39
2018-06-05T15:16:10.733Z,32.28
2018-06-05T15:18:39.296Z,32.39
2018-06-05T15:21:07.766Z,32.22
2018-06-05T15:30:34.696Z,31.03
2018-06-05T15:33:03.767Z,31.13
2018-06-05T15:35:32.944Z,31.12
2018-06-05T15:38:01.823Z,31.00
2018-06-05T15:40:30.811Z,31.05
2018-06-05T15:43:00.294Z,31.17
2018-06-05T15:45:29.697Z,30.98
2018-06-05T15:47:58.534Z,31.12
2018-06-05T15:50:27.682Z,31.16
2018-06-05T15:52:56.305Z,31.13
2018-06-05T15:55:25.216Z,30.99
2018-06-05T15:57:53.740Z,30.65
2018-06-05T16:00:22.410Z,30.64
2018-06-05T16:02:51.582Z,30.86
2018-06-05T16:05:20.096Z,30.91
2018-06-05T16:07:48.602Z,30.62
2018-06-05T16:10:17.169Z,30.82
2018-06-05T16:12:46.033Z,30.67
2018-06-05T16:15:14.761Z,30.52
2018-06-05T16:17:43.963Z,30.59
2018-06-05T16:20:12.533Z,30.55
2018-06-05T16:22:41.674Z,30.46
2018-06-05T16:25:11.614Z,30.04
2018-06-05T16:27:46.545Z,29.44
2018-06-05T16:30:23.374Z,29.59
2018-06-05T16:32:52.032Z,29.74
2018-06-05T16:35:23.295Z,29.69
2018-06-05T16:37:52.549Z,29.55
2018-06-05T16:40:21.079Z,29.73
2018-06-05T16:42:52.117Z,29.80
2018-06-05T16:45:21.191Z,29.71
2018-06-05T16:47:50.044Z,29.46
2018-06-05T16:50:26.384Z,29.66
2018-06-05T16:52:56.913Z,29.40
2018-06-05T16:55:25.697Z,29.61
2018-06-05T16:57:54.219Z,29.36
2018-06-05T17:00:27.324Z,29.37
2018-06-05T17:02:55.909Z,29.47
2018-06-05T17:05:24.499Z,29.45
2018-06-05T17:07:53.064Z,29.57
2018-06-05T17:10:21.662Z,29.66
2018-06-05T17:12:50.345Z,29.76
2018-06-05T17:15:19.276Z,29.72
2018-06-05T17:17:47.754Z,29.74
2018-06-05T17:20:16.279Z,29.55
2018-06-05T17:22:44.886Z,29.62
2018-06-05T17:25:14.561Z,29.29
2018-06-05T17:27:43.134Z,29.23
2018-06-05T17:30:11.615Z,29.18
2018-06-05T17:32:40.131Z,29.19
2018-06-05T17:35:09.361Z,29.20
2018-06-05T17:37:37.863Z,28.72
2018-06-05T17:40:06.765Z,28.93
2018-06-05T17:42:36.270Z,28.76
2018-06-05T17:45:04.773Z,28.41
2018-06-05T17:47:33.813Z,28.67
2018-06-05T17:50:02.380Z,28.75
2018-06-05T17:52:30.997Z,28.94
2018-06-05T17:54:59.493Z,28.95
2018-06-05T17:57:28.222Z,28.99
2018-06-05T17:59:56.799Z,28.71
2018-06-05T18:02:25.375Z,28.71
2018-06-05T18:04:54.129Z,28.75
2018-06-05T18:07:23.015Z,28.65
2018-06-05T18:09:51.872Z,28.81
2018-06-05T18:12:22.149Z,28.75
2018-06-05T18:14:50.639Z,28.67
2018-06-05T18:17:19.249Z,28.35
2018-06-05T18:19:48.212Z,28.42
2018-06-05T18:22:16.616Z,28.32
2018-06-05T18:24:45.528Z,28.36
2018-06-05T18:27:14.057Z,28.23
2018-06-05T18:29:42.846Z,28.36
2018-06-05T18:32:12.005Z,28.42
2018-06-05T18:34:40.577Z,28.51
2018-06-05T18:37:09.532Z,28.40
2018-06-05T18:39:38.616Z,28.30
2018-06-05T18:42:07.208Z,28.24
2018-06-05T18:44:35.883Z,28.22
2018-06-05T18:47:07.103Z,28.17
2018-06-05T18:49:35.762Z,28.15
2018-06-05T18:52:04.434Z,28.25
2018-06-05T18:54:32.944Z,28.15
2018-06-05T18:57:01.530Z,27.96
2018-06-05T18:59:32.183Z,27.97
2018-06-05T19:02:00.792Z,27.87
2018-06-05T19:04:29.847Z,27.97
2018-06-05T19:06:59.199Z,28.00
2018-06-05T19:09:27.875Z,27.98
2018-06-05T19:11:56.505Z,27.99
2018-06-05T19:14:26.165Z,27.89
2018-06-05T19:16:54.749Z,27.83
2018-06-05T19:19:23.626Z,27.78
2018-06-05T19:21:52.201Z,27.71
2018-06-05T19:24:26.729Z,27.71
2018-06-05T19:26:55.771Z,27.67
2018-06-05T19:29:24.576Z,27.66
2018-06-05T19:31:53.256Z,27.66
2018-06-05T19:34:22.070Z,27.63
2018-06-05T19:36:50.769Z,27.65
2018-06-05T19:39:19.762Z,27.60
2018-06-05T19:41:50.644Z,27.50
2018-06-05T19:44:20.686Z,27.49
2018-06-05T19:46:53.218Z,27.43
2018-06-05T19:49:22.893Z,27.35
2018-06-05T19:51:54.282Z,27.30
2018-06-05T19:54:22.830Z,27.21
2018-06-05T19:56:52.123Z,27.18
2018-06-05T19:59:21.535Z,27.14
2018-06-05T20:01:52.026Z,27.07
2018-06-05T20:04:20.726Z,27.00
2018-06-05T20:06:49.344Z,26.96
2018-06-05T20:09:17.942Z,26.91
2018-06-05T20:11:47.081Z,26.87
2018-06-05T20:14:16.058Z,26.83
2018-06-05T20:16:44.786Z,26.81
2018-06-05T20:19:13.262Z,26.75
2018-06-05T20:21:41.815Z,26.70
2018-06-05T20:24:10.340Z,26.64
2018-06-05T20:26:39.550Z,26.56
2018-06-05T20:29:08.710Z,26.50
2018-06-05T20:31:37.310Z,26.42
2018-06-05T20:34:05.883Z,26.23
2018-06-05T20:36:34.794Z,26.23
2018-06-05T20:39:03.534Z,26.17
2018-06-05T20:41:32.089Z,26.12
2018-06-05T20:44:01.204Z,26.06
2018-06-05T20:46:30.037Z,26.06
2018-06-05T20:48:58.650Z,25.89
2018-06-05T20:51:27.330Z,25.89
2018-06-05T20:53:56.116Z,25.84
2018-06-05T20:56:24.797Z,25.71
2018-06-05T20:58:53.669Z,25.71
2018-06-05T21:01:22.540Z,25.70
2018-06-05T21:03:51.057Z,25.56
2018-06-05T21:06:20.035Z,25.62
2018-06-05T21:08:48.629Z,25.62
2018-06-05T21:11:18.066Z,25.63
2018-06-05T21:13:47.326Z,25.60
2018-06-05T21:16:15.888Z,25.50
2018-06-05T21:18:45.463Z,25.52
2018-06-05T21:21:13.999Z,25.51
2018-06-05T21:23:43.518Z,25.47
2018-06-05T21:26:12.050Z,25.44
2018-06-05T21:28:40.895Z,25.25
2018-06-05T21:31:09.483Z,25.25
2018-06-05T21:33:38.065Z,25.23
2018-06-05T21:36:06.590Z,25.16
2018-06-05T21:38:35.112Z,25.17
2018-06-05T21:41:04.092Z,25.14
2018-06-05T21:43:32.741Z,25.14
2018-06-05T21:46:01.315Z,25.09
2018-06-05T21:48:29.862Z,25.03
2018-06-05T21:50:58.382Z,25.03
2018-06-05T21:53:27.207Z,25.02
2018-06-05T21:55:55.709Z,24.99
2018-06-05T21:58:24.709Z,24.95
2018-06-05T22:00:53.251Z,24.94
2018-06-05T22:03:21.813Z,24.94
2018-06-05T22:05:50.418Z,24.92
2018-06-05T22:08:18.976Z,24.85
2018-06-05T22:10:47.535Z,24.83
2018-06-05T22:13:16.073Z,24.80
2018-06-05T22:15:44.719Z,24.77
2018-06-05T22:18:13.293Z,24.69
2018-06-05T22:20:41.869Z,24.64
2018-06-05T22:23:10.423Z,24.62
2018-06-05T22:25:38.957Z,24.59
2018-06-05T22:28:07.488Z,24.45
2018-06-05T22:30:36.059Z,24.46
2018-06-05T22:33:04.589Z,24.39
2018-06-05T22:35:33.130Z,24.40
2018-06-05T22:38:01.652Z,24.37
2018-06-05T22:40:30.135Z,24.40
2018-06-05T22:42:58.630Z,24.31
2018-06-05T22:45:27.098Z,24.26
2018-06-05T22:47:55.760Z,24.24
2018-06-05T22:50:25.398Z,24.20
2018-06-05T22:52:54.336Z,24.17
2018-06-05T22:55:22.850Z,24.14
2018-06-05T22:57:52.588Z,24.13
2018-06-05T23:00:27.486Z,24.08
2018-06-05T23:02:55.981Z,24.08
2018-06-05T23:05:24.601Z,23.77
2018-06-05T23:07:53.138Z,23.89
2018-06-05T23:10:21.667Z,23.88
2018-06-05T23:12:50.716Z,23.94
2018-06-05T23:15:19.239Z,23.86
2018-06-05T23:17:48.300Z,23.88
2018-06-05T23:20:16.798Z,23.85
2018-06-05T23:22:45.591Z,23.80
2018-06-05T23:25:14.049Z,23.81
2018-06-05T23:27:42.513Z,23.74
2018-06-05T23:30:11.052Z,23.57
2018-06-05T23:32:39.695Z,23.57
2018-06-05T23:35:08.164Z,23.57
2018-06-05T23:37:36.782Z,23.53
2018-06-05T23:40:05.536Z,23.55
2018-06-05T23:42:34.183Z,23.54
2018-06-05T23:45:02.654Z,23.43
2018-06-05T23:47:32.119Z,23.45
2018-06-05T23:50:01.324Z,23.47
2018-06-05T23:52:29.758Z,23.46
2018-06-05T23:54:58.270Z,23.44
2018-06-05T23:57:26.837Z,23.39
2018-06-05T23:59:55.400Z,23.34
